map of OIT home
OIT - Airport
Location
City:  Oita, Oita, Japan
Near (Alt.):Kunisaki
Name:Oita Airport
ICAO:RJFO
IATA:OIT

Details
Type:Airport (Aerodrome, Airfield)
Use:Public/Civil
Latitude:3328'46"N (33.479444)
Longitude:13144'14"E (131.737222)
Datum:WGS 1984
Elevation:19 ft (6 m)
Variation:7.50W (WMM2015 magnetic declination)
-0.07 annual change
Runways:1
Longest:9840 × 150 ft (2999 × 45.5 m), paved

Time
Time Zone:UTC+9
Local Time:

Weather
METAR:RJFO 171000Z 28007KT 9999 FEW050 BKN070 09/01 Q1016
TAF:RJFO 170507Z 1706/1812 30005KT 9999 -SHRA FEW025 BKN040
TEMPO 1706/1707 30015G25KT
BECMG 1715/1717 26008KT
BECMG 1721/1800 30006KT
BECMG 1806/1809 25003KT

Related Locations
Nearby:
Farthest:SSMT: 12211 mi / 19652 km
Mostardas, RS, BR

Find:

   beyond  
but within

Other Information
Maps:
NOTAMs:
Links:
Sources:

  
  • flag of Japan
  • flag of Oita
  • flag of Oita
  

Sectional Chart

Flight Planning
at skyvector.com

Satellite Image

Google Maps Satellite view

 

Copyright © 2004-2018 Karl L. Swartz. All rights reserved.
The Great Circle Mapper name and logo are trademarks of the Great Circle Mapper.
All other trademarks mentioned herein belong to their respective owners.
Please see credits for attibutions and further copyright information.

  Follow gcmap on Facebook Follow gcmap on Twitter Follow gcmap on Google+ GCmap on LinkedIn

hCard Microformat

Geo Microformat